sensor_id;sensor_type;location;lat;lon;timestamp;P1;durP1;ratioP1;P2;durP2;ratioP2
48367;SDS011;34173;47.446;18.912;2022-09-01T00:00:03;4.05;;;1.83;;
48367;SDS011;34173;47.446;18.912;2022-09-01T00:02:34;4.97;;;2.22;;
48367;SDS011;34173;47.446;18.912;2022-09-01T00:05:02;6.55;;;2.25;;
48367;SDS011;34173;47.446;18.912;2022-09-01T00:07:30;4.22;;;2.20;;
48367;SDS011;34173;47.446;18.912;2022-09-01T00:09:58;5.97;;;2.35;;
48367;SDS011;34173;47.446;18.912;2022-09-01T00:12:27;4.87;;;2.75;;
48367;SDS011;34173;47.446;18.912;2022-09-01T00:14:55;4.30;;;2.75;;
48367;SDS011;34173;47.446;18.912;2022-09-01T00:17:24;7.85;;;2.83;;
48367;SDS011;34173;47.446;18.912;2022-09-01T00:19:52;7.65;;;3.78;;
48367;SDS011;34173;47.446;18.912;2022-09-01T00:22:19;4.60;;;2.67;;
48367;SDS011;34173;47.446;18.912;2022-09-01T00:24:47;9.40;;;4.03;;
48367;SDS011;34173;47.446;18.912;2022-09-01T00:27:15;5.75;;;3.30;;
48367;SDS011;34173;47.446;18.912;2022-09-01T00:29:43;3.83;;;2.33;;
48367;SDS011;34173;47.446;18.912;2022-09-01T00:32:11;8.90;;;2.78;;
48367;SDS011;34173;47.446;18.912;2022-09-01T00:34:39;5.43;;;2.87;;
48367;SDS011;34173;47.446;18.912;2022-09-01T00:37:06;4.87;;;2.58;;
48367;SDS011;34173;47.446;18.912;2022-09-01T00:39:34;5.70;;;2.58;;
48367;SDS011;34173;47.446;18.912;2022-09-01T00:42:02;7.97;;;2.70;;
48367;SDS011;34173;47.446;18.912;2022-09-01T00:44:30;5.82;;;2.65;;
48367;SDS011;34173;47.446;18.912;2022-09-01T00:46:58;7.45;;;2.67;;
48367;SDS011;34173;47.446;18.912;2022-09-01T00:52:10;5.75;;;2.55;;
48367;SDS011;34173;47.446;18.912;2022-09-01T00:54:43;5.62;;;2.50;;
48367;SDS011;34173;47.446;18.912;2022-09-01T00:57:13;4.12;;;2.10;;
48367;SDS011;34173;47.446;18.912;2022-09-01T00:59:51;4.78;;;2.42;;
48367;SDS011;34173;47.446;18.912;2022-09-01T01:02:21;4.87;;;2.37;;
48367;SDS011;34173;47.446;18.912;2022-09-01T01:04:49;6.03;;;2.20;;
48367;SDS011;34173;47.446;18.912;2022-09-01T01:07:19;6.45;;;2.12;;
48367;SDS011;34173;47.446;18.912;2022-09-01T01:09:49;5.82;;;2.22;;
48367;SDS011;34173;47.446;18.912;2022-09-01T01:12:18;6.40;;;1.98;;
48367;SDS011;34173;47.446;18.912;2022-09-01T01:14:46;4.70;;;1.83;;
48367;SDS011;34173;47.446;18.912;2022-09-01T01:17:19;3.80;;;1.70;;
48367;SDS011;34173;47.446;18.912;2022-09-01T01:19:51;3.22;;;1.60;;
48367;SDS011;34173;47.446;18.912;2022-09-01T01:30:51;5.45;;;1.75;;
48367;SDS011;34173;47.446;18.912;2022-09-01T01:33:24;5.68;;;1.87;;
48367;SDS011;34173;47.446;18.912;2022-09-01T01:35:56;5.20;;;2.10;;
48367;SDS011;34173;47.446;18.912;2022-09-01T01:38:24;7.35;;;2.00;;
48367;SDS011;34173;47.446;18.912;2022-09-01T01:40:53;5.90;;;2.22;;
48367;SDS011;34173;47.446;18.912;2022-09-01T01:43:22;5.57;;;2.40;;
48367;SDS011;34173;47.446;18.912;2022-09-01T01:45:52;6.82;;;2.20;;
48367;SDS011;34173;47.446;18.912;2022-09-01T01:48:22;6.35;;;2.08;;
48367;SDS011;34173;47.446;18.912;2022-09-01T01:50:51;4.45;;;1.83;;
48367;SDS011;34173;47.446;18.912;2022-09-01T01:53:21;5.32;;;2.10;;
48367;SDS011;34173;47.446;18.912;2022-09-01T01:55:49;5.00;;;1.90;;
48367;SDS011;34173;47.446;18.912;2022-09-01T01:58:18;4.37;;;2.17;;
48367;SDS011;34173;47.446;18.912;2022-09-01T02:00:48;4.43;;;1.95;;
48367;SDS011;34173;47.446;18.912;2022-09-01T02:03:17;4.35;;;2.00;;
48367;SDS011;34173;47.446;18.912;2022-09-01T02:05:46;4.05;;;1.83;;
48367;SDS011;34173;47.446;18.912;2022-09-01T02:08:22;6.37;;;2.10;;
48367;SDS011;34173;47.446;18.912;2022-09-01T02:10:53;5.62;;;1.80;;
48367;SDS011;34173;47.446;18.912;2022-09-01T02:13:22;5.05;;;1.85;;
48367;SDS011;34173;47.446;18.912;2022-09-01T02:15:59;4.37;;;1.95;;
48367;SDS011;34173;47.446;18.912;2022-09-01T02:18:35;5.20;;;2.28;;
48367;SDS011;34173;47.446;18.912;2022-09-01T02:21:06;4.85;;;1.95;;
48367;SDS011;34173;47.446;18.912;2022-09-01T02:23:42;6.22;;;2.22;;
48367;SDS011;34173;47.446;18.912;2022-09-01T02:26:10;5.05;;;1.98;;
48367;SDS011;34173;47.446;18.912;2022-09-01T02:28:44;3.75;;;2.12;;
48367;SDS011;34173;47.446;18.912;2022-09-01T02:31:25;4.45;;;2.12;;
48367;SDS011;34173;47.446;18.912;2022-09-01T02:33:54;4.43;;;1.80;;
48367;SDS011;34173;47.446;18.912;2022-09-01T02:36:22;4.75;;;1.70;;
48367;SDS011;34173;47.446;18.912;2022-09-01T02:38:52;4.07;;;1.60;;
48367;SDS011;34173;47.446;18.912;2022-09-01T02:41:23;10.93;;;1.70;;
48367;SDS011;34173;47.446;18.912;2022-09-01T02:43:55;3.75;;;1.80;;
48367;SDS011;34173;47.446;18.912;2022-09-01T02:46:23;5.15;;;1.67;;
48367;SDS011;34173;47.446;18.912;2022-09-01T02:48:51;3.35;;;1.48;;
48367;SDS011;34173;47.446;18.912;2022-09-01T02:51:20;3.83;;;1.50;;
48367;SDS011;34173;47.446;18.912;2022-09-01T02:53:50;3.17;;;1.98;;
48367;SDS011;34173;47.446;18.912;2022-09-01T02:56:20;4.95;;;1.70;;
48367;SDS011;34173;47.446;18.912;2022-09-01T02:58:52;3.10;;;1.55;;
48367;SDS011;34173;47.446;18.912;2022-09-01T03:01:22;4.82;;;1.48;;
48367;SDS011;34173;47.446;18.912;2022-09-01T03:03:54;6.05;;;1.62;;
48367;SDS011;34173;47.446;18.912;2022-09-01T03:06:23;4.00;;;1.87;;
48367;SDS011;34173;47.446;18.912;2022-09-01T03:08:52;4.57;;;1.35;;
48367;SDS011;34173;47.446;18.912;2022-09-01T03:11:21;3.00;;;1.37;;
48367;SDS011;34173;47.446;18.912;2022-09-01T03:13:51;4.75;;;1.60;;
48367;SDS011;34173;47.446;18.912;2022-09-01T03:16:19;3.08;;;1.60;;
48367;SDS011;34173;47.446;18.912;2022-09-01T03:18:49;3.92;;;1.50;;
48367;SDS011;34173;47.446;18.912;2022-09-01T03:21:18;2.87;;;1.37;;
48367;SDS011;34173;47.446;18.912;2022-09-01T03:23:47;4.12;;;1.80;;
48367;SDS011;34173;47.446;18.912;2022-09-01T03:26:15;4.10;;;1.60;;
48367;SDS011;34173;47.446;18.912;2022-09-01T03:28:45;4.05;;;1.65;;
48367;SDS011;34173;47.446;18.912;2022-09-01T03:31:13;4.62;;;1.83;;
48367;SDS011;34173;47.446;18.912;2022-09-01T03:33:41;4.28;;;1.60;;
48367;SDS011;34173;47.446;18.912;2022-09-01T03:36:09;4.70;;;1.65;;
48367;SDS011;34173;47.446;18.912;2022-09-01T03:38:46;5.45;;;1.90;;
48367;SDS011;34173;47.446;18.912;2022-09-01T03:41:16;4.25;;;1.77;;
48367;SDS011;34173;47.446;18.912;2022-09-01T03:43:48;4.57;;;1.62;;
48367;SDS011;34173;47.446;18.912;2022-09-01T03:46:16;4.87;;;1.70;;
48367;SDS011;34173;47.446;18.912;2022-09-01T03:48:53;2.72;;;1.30;;
48367;SDS011;34173;47.446;18.912;2022-09-01T03:51:22;4.05;;;1.42;;
48367;SDS011;34173;47.446;18.912;2022-09-01T03:53:51;4.40;;;2.00;;
48367;SDS011;34173;47.446;18.912;2022-09-01T03:56:26;4.50;;;1.75;;
48367;SDS011;34173;47.446;18.912;2022-09-01T03:58:56;4.87;;;1.65;;
48367;SDS011;34173;47.446;18.912;2022-09-01T04:01:25;5.95;;;2.10;;
48367;SDS011;34173;47.446;18.912;2022-09-01T04:03:55;4.65;;;2.15;;
48367;SDS011;34173;47.446;18.912;2022-09-01T04:06:24;4.35;;;2.20;;
48367;SDS011;34173;47.446;18.912;2022-09-01T04:08:52;6.10;;;2.10;;
48367;SDS011;34173;47.446;18.912;2022-09-01T04:11:29;5.05;;;1.98;;
48367;SDS011;34173;47.446;18.912;2022-09-01T04:13:58;6.45;;;2.50;;
48367;SDS011;34173;47.446;18.912;2022-09-01T04:16:29;4.97;;;2.08;;
48367;SDS011;34173;47.446;18.912;2022-09-01T04:19:17;6.37;;;2.70;;
48367;SDS011;34173;47.446;18.912;2022-09-01T04:21:51;4.82;;;2.10;;
48367;SDS011;34173;47.446;18.912;2022-09-01T04:24:22;5.30;;;2.27;;
48367;SDS011;34173;47.446;18.912;2022-09-01T04:26:51;5.82;;;2.20;;
48367;SDS011;34173;47.446;18.912;2022-09-01T04:29:19;6.50;;;2.53;;
48367;SDS011;34173;47.446;18.912;2022-09-01T04:31:55;4.87;;;1.60;;
48367;SDS011;34173;47.446;18.912;2022-09-01T04:34:29;3.37;;;1.60;;
48367;SDS011;34173;47.446;18.912;2022-09-01T04:37:08;4.70;;;1.75;;
48367;SDS011;34173;47.446;18.912;2022-09-01T04:39:41;4.85;;;1.80;;
48367;SDS011;34173;47.446;18.912;2022-09-01T04:42:19;4.32;;;2.00;;
48367;SDS011;34173;47.446;18.912;2022-09-01T04:44:51;4.85;;;1.50;;
48367;SDS011;34173;47.446;18.912;2022-09-01T04:47:21;5.75;;;1.65;;
48367;SDS011;34173;47.446;18.912;2022-09-01T04:50:03;4.62;;;1.70;;
48367;SDS011;34173;47.446;18.912;2022-09-01T04:52:41;3.17;;;1.48;;
48367;SDS011;34173;47.446;18.912;2022-09-01T04:55:13;2.97;;;1.67;;
48367;SDS011;34173;47.446;18.912;2022-09-01T04:57:45;4.00;;;1.50;;
48367;SDS011;34173;47.446;18.912;2022-09-01T05:00:14;5.45;;;1.98;;
48367;SDS011;34173;47.446;18.912;2022-09-01T05:02:53;8.35;;;2.30;;
48367;SDS011;34173;47.446;18.912;2022-09-01T05:05:22;6.12;;;2.50;;
48367;SDS011;34173;47.446;18.912;2022-09-01T05:07:50;5.00;;;2.10;;
48367;SDS011;34173;47.446;18.912;2022-09-01T05:10:21;8.60;;;2.58;;
48367;SDS011;34173;47.446;18.912;2022-09-01T05:12:52;4.57;;;2.45;;
48367;SDS011;34173;47.446;18.912;2022-09-01T05:15:19;6.75;;;2.35;;
48367;SDS011;34173;47.446;18.912;2022-09-01T05:17:47;6.55;;;2.20;;
48367;SDS011;34173;47.446;18.912;2022-09-01T05:20:15;5.18;;;2.33;;
48367;SDS011;34173;47.446;18.912;2022-09-01T05:22:43;7.47;;;2.58;;
48367;SDS011;34173;47.446;18.912;2022-09-01T05:25:11;6.93;;;2.62;;
48367;SDS011;34173;47.446;18.912;2022-09-01T05:27:40;9.73;;;2.72;;
48367;SDS011;34173;47.446;18.912;2022-09-01T05:30:11;8.30;;;2.47;;
48367;SDS011;34173;47.446;18.912;2022-09-01T05:32:40;7.10;;;2.70;;
48367;SDS011;34173;47.446;18.912;2022-09-01T05:35:08;7.40;;;2.50;;
48367;SDS011;34173;47.446;18.912;2022-09-01T05:37:36;5.72;;;2.25;;
48367;SDS011;34173;47.446;18.912;2022-09-01T05:40:04;4.87;;;2.12;;
48367;SDS011;34173;47.446;18.912;2022-09-01T05:42:34;6.30;;;2.05;;
48367;SDS011;34173;47.446;18.912;2022-09-01T05:45:06;5.43;;;2.70;;
48367;SDS011;34173;47.446;18.912;2022-09-01T05:47:34;7.47;;;2.30;;
48367;SDS011;34173;47.446;18.912;2022-09-01T05:50:03;5.68;;;2.53;;
48367;SDS011;34173;47.446;18.912;2022-09-01T05:52:32;6.20;;;1.83;;
48367;SDS011;34173;47.446;18.912;2022-09-01T05:55:00;4.53;;;1.98;;
48367;SDS011;34173;47.446;18.912;2022-09-01T05:57:28;6.45;;;2.00;;
48367;SDS011;34173;47.446;18.912;2022-09-01T06:00:04;5.90;;;1.52;;
48367;SDS011;34173;47.446;18.912;2022-09-01T06:02:39;4.32;;;1.87;;
48367;SDS011;34173;47.446;18.912;2022-09-01T06:05:08;4.53;;;1.80;;
48367;SDS011;34173;47.446;18.912;2022-09-01T06:07:37;4.47;;;1.87;;
48367;SDS011;34173;47.446;18.912;2022-09-01T06:10:07;4.32;;;1.80;;
48367;SDS011;34173;47.446;18.912;2022-09-01T06:12:36;5.28;;;2.10;;
48367;SDS011;34173;47.446;18.912;2022-09-01T06:15:07;4.43;;;1.73;;
48367;SDS011;34173;47.446;18.912;2022-09-01T06:17:43;5.28;;;1.90;;
48367;SDS011;34173;47.446;18.912;2022-09-01T06:20:12;5.95;;;1.60;;
48367;SDS011;34173;47.446;18.912;2022-09-01T06:22:40;4.12;;;1.70;;
48367;SDS011;34173;47.446;18.912;2022-09-01T06:25:08;3.15;;;1.75;;
48367;SDS011;34173;47.446;18.912;2022-09-01T06:27:36;6.35;;;1.77;;
48367;SDS011;34173;47.446;18.912;2022-09-01T06:30:11;7.05;;;2.00;;
48367;SDS011;34173;47.446;18.912;2022-09-01T06:32:50;4.45;;;1.60;;
48367;SDS011;34173;47.446;18.912;2022-09-01T06:35:20;4.40;;;1.70;;
48367;SDS011;34173;47.446;18.912;2022-09-01T06:37:48;4.20;;;1.60;;
48367;SDS011;34173;47.446;18.912;2022-09-01T06:40:17;5.65;;;1.70;;
48367;SDS011;34173;47.446;18.912;2022-09-01T06:42:47;5.18;;;1.55;;
48367;SDS011;34173;47.446;18.912;2022-09-01T06:45:16;3.03;;;1.33;;
48367;SDS011;34173;47.446;18.912;2022-09-01T06:47:47;5.30;;;1.40;;
48367;SDS011;34173;47.446;18.912;2022-09-01T06:50:23;2.90;;;1.50;;
48367;SDS011;34173;47.446;18.912;2022-09-01T06:53:11;5.20;;;1.35;;
48367;SDS011;34173;47.446;18.912;2022-09-01T06:56:01;3.62;;;1.67;;
48367;SDS011;34173;47.446;18.912;2022-09-01T06:58:29;3.53;;;1.45;;
48367;SDS011;34173;47.446;18.912;2022-09-01T07:00:57;3.47;;;1.40;;
48367;SDS011;34173;47.446;18.912;2022-09-01T07:03:25;4.07;;;1.30;;
48367;SDS011;34173;47.446;18.912;2022-09-01T07:05:55;4.30;;;1.58;;
48367;SDS011;34173;47.446;18.912;2022-09-01T07:08:31;3.90;;;1.75;;
48367;SDS011;34173;47.446;18.912;2022-09-01T07:11:27;3.75;;;1.70;;
48367;SDS011;34173;47.446;18.912;2022-09-01T07:14:17;4.15;;;1.37;;
48367;SDS011;34173;47.446;18.912;2022-09-01T07:16:45;3.55;;;1.50;;
48367;SDS011;34173;47.446;18.912;2022-09-01T07:19:20;7.50;;;2.00;;
48367;SDS011;34173;47.446;18.912;2022-09-01T07:21:48;3.35;;;1.20;;
48367;SDS011;34173;47.446;18.912;2022-09-01T07:24:36;3.12;;;1.20;;
48367;SDS011;34173;47.446;18.912;2022-09-01T07:27:07;3.20;;;1.40;;
48367;SDS011;34173;47.446;18.912;2022-09-01T07:29:37;4.85;;;1.80;;
48367;SDS011;34173;47.446;18.912;2022-09-01T07:32:08;3.12;;;1.50;;
48367;SDS011;34173;47.446;18.912;2022-09-01T07:34:57;2.75;;;1.45;;
48367;SDS011;34173;47.446;18.912;2022-09-01T07:37:26;3.83;;;1.60;;
48367;SDS011;34173;47.446;18.912;2022-09-01T07:40:15;4.20;;;1.35;;
48367;SDS011;34173;47.446;18.912;2022-09-01T07:43:16;4.18;;;1.55;;
48367;SDS011;34173;47.446;18.912;2022-09-01T07:45:51;2.90;;;1.50;;
48367;SDS011;34173;47.446;18.912;2022-09-01T07:48:26;2.92;;;1.52;;
48367;SDS011;34173;47.446;18.912;2022-09-01T07:51:15;4.55;;;1.30;;
48367;SDS011;34173;47.446;18.912;2022-09-01T07:54:04;3.92;;;1.62;;
48367;SDS011;34173;47.446;18.912;2022-09-01T07:56:32;3.72;;;1.33;;
48367;SDS011;34173;47.446;18.912;2022-09-01T07:59:06;3.45;;;1.37;;
48367;SDS011;34173;47.446;18.912;2022-09-01T08:01:42;2.72;;;1.17;;
48367;SDS011;34173;47.446;18.912;2022-09-01T08:04:10;2.60;;;1.20;;
48367;SDS011;34173;47.446;18.912;2022-09-01T08:06:39;3.05;;;1.30;;
48367;SDS011;34173;47.446;18.912;2022-09-01T08:09:07;2.80;;;1.10;;
48367;SDS011;34173;47.446;18.912;2022-09-01T08:11:43;4.60;;;1.00;;
48367;SDS011;34173;47.446;18.912;2022-09-01T08:14:29;3.58;;;1.20;;
48367;SDS011;34173;47.446;18.912;2022-09-01T08:17:01;4.50;;;1.33;;
48367;SDS011;34173;47.446;18.912;2022-09-01T08:19:49;2.42;;;1.10;;
48367;SDS011;34173;47.446;18.912;2022-09-01T08:22:19;2.83;;;1.20;;
48367;SDS011;34173;47.446;18.912;2022-09-01T08:24:51;2.78;;;0.90;;
48367;SDS011;34173;47.446;18.912;2022-09-01T08:27:20;4.05;;;1.10;;
48367;SDS011;34173;47.446;18.912;2022-09-01T08:29:47;4.18;;;1.20;;
48367;SDS011;34173;47.446;18.912;2022-09-01T08:32:15;4.82;;;1.33;;
48367;SDS011;34173;47.446;18.912;2022-09-01T08:34:43;1.90;;;0.90;;
48367;SDS011;34173;47.446;18.912;2022-09-01T08:37:11;3.08;;;1.05;;
48367;SDS011;34173;47.446;18.912;2022-09-01T08:39:39;4.32;;;1.30;;
48367;SDS011;34173;47.446;18.912;2022-09-01T08:42:12;5.12;;;1.23;;
48367;SDS011;34173;47.446;18.912;2022-09-01T08:47:54;2.00;;;1.00;;
48367;SDS011;34173;47.446;18.912;2022-09-01T08:50:47;2.90;;;1.15;;
48367;SDS011;34173;47.446;18.912;2022-09-01T08:53:37;2.97;;;1.02;;
48367;SDS011;34173;47.446;18.912;2022-09-01T08:56:17;2.80;;;1.02;;
48367;SDS011;34173;47.446;18.912;2022-09-01T08:58:45;3.72;;;1.00;;
48367;SDS011;34173;47.446;18.912;2022-09-01T09:01:17;3.45;;;1.30;;
48367;SDS011;34173;47.446;18.912;2022-09-01T09:04:03;3.90;;;1.48;;
48367;SDS011;34173;47.446;18.912;2022-09-01T09:07:01;4.35;;;1.37;;
48367;SDS011;34173;47.446;18.912;2022-09-01T09:09:37;3.08;;;1.30;;
48367;SDS011;34173;47.446;18.912;2022-09-01T09:15:15;3.40;;;1.20;;
48367;SDS011;34173;47.446;18.912;2022-09-01T09:18:18;4.55;;;1.27;;
48367;SDS011;34173;47.446;18.912;2022-09-01T09:21:17;10.32;;;1.33;;
48367;SDS011;34173;47.446;18.912;2022-09-01T09:23:49;5.37;;;1.20;;
48367;SDS011;34173;47.446;18.912;2022-09-01T09:26:22;2.80;;;1.02;;
48367;SDS011;34173;47.446;18.912;2022-09-01T09:28:49;2.92;;;1.23;;
48367;SDS011;34173;47.446;18.912;2022-09-01T09:34:03;2.35;;;1.27;;
48367;SDS011;34173;47.446;18.912;2022-09-01T09:36:43;2.85;;;1.15;;
48367;SDS011;34173;47.446;18.912;2022-09-01T09:39:20;3.35;;;1.50;;
48367;SDS011;34173;47.446;18.912;2022-09-01T09:42:04;3.60;;;1.50;;
48367;SDS011;34173;47.446;18.912;2022-09-01T09:44:41;2.28;;;1.35;;
48367;SDS011;34173;47.446;18.912;2022-09-01T09:53:14;2.25;;;1.00;;
48367;SDS011;34173;47.446;18.912;2022-09-01T09:58:23;2.33;;;1.00;;
48367;SDS011;34173;47.446;18.912;2022-09-01T10:01:12;4.10;;;1.20;;
48367;SDS011;34173;47.446;18.912;2022-09-01T10:04:01;2.95;;;1.20;;
48367;SDS011;34173;47.446;18.912;2022-09-01T10:06:34;2.67;;;0.80;;
48367;SDS011;34173;47.446;18.912;2022-09-01T10:11:53;2.55;;;1.10;;
48367;SDS011;34173;47.446;18.912;2022-09-01T10:17:11;2.20;;;0.90;;
48367;SDS011;34173;47.446;18.912;2022-09-01T10:19:46;3.08;;;1.37;;
48367;SDS011;34173;47.446;18.912;2022-09-01T10:22:17;4.35;;;1.10;;
48367;SDS011;34173;47.446;18.912;2022-09-01T10:24:45;3.17;;;0.90;;
48367;SDS011;34173;47.446;18.912;2022-09-01T10:32:41;3.75;;;1.00;;
48367;SDS011;34173;47.446;18.912;2022-09-01T10:37:57;2.78;;;0.90;;
48367;SDS011;34173;47.446;18.912;2022-09-01T10:43:21;3.22;;;0.82;;
48367;SDS011;34173;47.446;18.912;2022-09-01T10:45:52;2.97;;;0.75;;
48367;SDS011;34173;47.446;18.912;2022-09-01T10:48:31;2.67;;;1.25;;
48367;SDS011;34173;47.446;18.912;2022-09-01T10:53:47;7.03;;;1.30;;
48367;SDS011;34173;47.446;18.912;2022-09-01T10:56:19;2.37;;;0.88;;
48367;SDS011;34173;47.446;18.912;2022-09-01T11:02:09;5.22;;;1.00;;
48367;SDS011;34173;47.446;18.912;2022-09-01T11:07:31;3.12;;;0.82;;
48367;SDS011;34173;47.446;18.912;2022-09-01T11:15:42;2.97;;;0.70;;
48367;SDS011;34173;47.446;18.912;2022-09-01T11:18:15;2.15;;;0.75;;
48367;SDS011;34173;47.446;18.912;2022-09-01T11:20:46;3.92;;;1.12;;
48367;SDS011;34173;47.446;18.912;2022-09-01T11:25:56;2.20;;;0.80;;
48367;SDS011;34173;47.446;18.912;2022-09-01T11:28:44;3.35;;;0.77;;
48367;SDS011;34173;47.446;18.912;2022-09-01T11:31:18;2.35;;;0.60;;
48367;SDS011;34173;47.446;18.912;2022-09-01T11:36:45;2.08;;;0.68;;
48367;SDS011;34173;47.446;18.912;2022-09-01T11:41:55;3.05;;;0.68;;
48367;SDS011;34173;47.446;18.912;2022-09-01T11:47:06;8.90;;;0.80;;
48367;SDS011;34173;47.446;18.912;2022-09-01T11:49:48;1.92;;;0.62;;
48367;SDS011;34173;47.446;18.912;2022-09-01T11:52:19;3.35;;;0.98;;
48367;SDS011;34173;47.446;18.912;2022-09-01T11:54:48;5.25;;;0.80;;
48367;SDS011;34173;47.446;18.912;2022-09-01T11:57:27;1.45;;;0.60;;
48367;SDS011;34173;47.446;18.912;2022-09-01T11:59:59;1.73;;;0.65;;
48367;SDS011;34173;47.446;18.912;2022-09-01T12:02:44;3.47;;;0.75;;
48367;SDS011;34173;47.446;18.912;2022-09-01T12:05:28;3.10;;;0.90;;
48367;SDS011;34173;47.446;18.912;2022-09-01T12:07:58;1.97;;;0.70;;
48367;SDS011;34173;47.446;18.912;2022-09-01T12:10:34;2.60;;;0.62;;
48367;SDS011;34173;47.446;18.912;2022-09-01T12:13:07;2.50;;;0.60;;
48367;SDS011;34173;47.446;18.912;2022-09-01T12:15:37;3.12;;;0.88;;
48367;SDS011;34173;47.446;18.912;2022-09-01T12:18:30;2.33;;;0.60;;
48367;SDS011;34173;47.446;18.912;2022-09-01T12:21:03;2.60;;;0.70;;
48367;SDS011;34173;47.446;18.912;2022-09-01T12:23:34;2.05;;;0.70;;
48367;SDS011;34173;47.446;18.912;2022-09-01T12:26:13;3.28;;;0.60;;
48367;SDS011;34173;47.446;18.912;2022-09-01T12:28:44;2.75;;;0.75;;
48367;SDS011;34173;47.446;18.912;2022-09-01T12:31:17;1.70;;;0.80;;
48367;SDS011;34173;47.446;18.912;2022-09-01T12:33:47;1.37;;;0.68;;
48367;SDS011;34173;47.446;18.912;2022-09-01T12:38:56;3.83;;;0.75;;
48367;SDS011;34173;47.446;18.912;2022-09-01T12:41:44;1.87;;;0.70;;
48367;SDS011;34173;47.446;18.912;2022-09-01T12:44:30;2.72;;;0.70;;
48367;SDS011;34173;47.446;18.912;2022-09-01T12:46:59;2.78;;;0.80;;
48367;SDS011;34173;47.446;18.912;2022-09-01T12:49:34;4.82;;;0.85;;
48367;SDS011;34173;47.446;18.912;2022-09-01T12:52:07;4.53;;;0.80;;
48367;SDS011;34173;47.446;18.912;2022-09-01T12:54:47;1.80;;;0.88;;
48367;SDS011;34173;47.446;18.912;2022-09-01T12:57:24;2.20;;;0.95;;
48367;SDS011;34173;47.446;18.912;2022-09-01T13:00:07;2.25;;;0.90;;
48367;SDS011;34173;47.446;18.912;2022-09-01T13:02:40;4.18;;;0.90;;
48367;SDS011;34173;47.446;18.912;2022-09-01T13:05:45;4.53;;;1.00;;
48367;SDS011;34173;47.446;18.912;2022-09-01T13:08:13;2.80;;;0.70;;
48367;SDS011;34173;47.446;18.912;2022-09-01T13:10:45;1.62;;;0.80;;
48367;SDS011;34173;47.446;18.912;2022-09-01T13:13:15;1.00;;;0.50;;
48367;SDS011;34173;47.446;18.912;2022-09-01T13:15:46;2.28;;;0.90;;
48367;SDS011;34173;47.446;18.912;2022-09-01T13:18:17;2.03;;;0.77;;
48367;SDS011;34173;47.446;18.912;2022-09-01T13:20:46;3.00;;;0.80;;
48367;SDS011;34173;47.446;18.912;2022-09-01T13:23:15;2.35;;;0.60;;
48367;SDS011;34173;47.446;18.912;2022-09-01T13:25:43;2.17;;;0.77;;
48367;SDS011;34173;47.446;18.912;2022-09-01T13:28:13;4.03;;;0.70;;
48367;SDS011;34173;47.446;18.912;2022-09-01T13:30:42;2.90;;;0.80;;
48367;SDS011;34173;47.446;18.912;2022-09-01T13:33:10;1.52;;;0.60;;
48367;SDS011;34173;47.446;18.912;2022-09-01T13:35:47;2.25;;;0.50;;
48367;SDS011;34173;47.446;18.912;2022-09-01T13:38:16;4.15;;;0.68;;
48367;SDS011;34173;47.446;18.912;2022-09-01T13:40:44;1.70;;;0.70;;
48367;SDS011;34173;47.446;18.912;2022-09-01T13:43:13;3.05;;;0.80;;
48367;SDS011;34173;47.446;18.912;2022-09-01T13:45:42;2.67;;;0.70;;
48367;SDS011;34173;47.446;18.912;2022-09-01T13:48:11;1.60;;;0.68;;
48367;SDS011;34173;47.446;18.912;2022-09-01T13:50:47;2.33;;;0.60;;
48367;SDS011;34173;47.446;18.912;2022-09-01T13:53:36;2.47;;;0.68;;
48367;SDS011;34173;47.446;18.912;2022-09-01T13:56:04;3.60;;;0.70;;
48367;SDS011;34173;47.446;18.912;2022-09-01T13:58:31;2.47;;;0.75;;
48367;SDS011;34173;47.446;18.912;2022-09-01T14:00:59;1.50;;;0.77;;
48367;SDS011;34173;47.446;18.912;2022-09-01T14:03:26;1.58;;;0.62;;
48367;SDS011;34173;47.446;18.912;2022-09-01T14:05:58;2.90;;;0.80;;
48367;SDS011;34173;47.446;18.912;2022-09-01T14:08:26;3.00;;;0.60;;
48367;SDS011;34173;47.446;18.912;2022-09-01T14:10:53;3.20;;;0.80;;
48367;SDS011;34173;47.446;18.912;2022-09-01T14:13:21;1.75;;;0.57;;
48367;SDS011;34173;47.446;18.912;2022-09-01T14:15:50;2.35;;;0.70;;
48367;SDS011;34173;47.446;18.912;2022-09-01T14:18:20;5.70;;;0.77;;
48367;SDS011;34173;47.446;18.912;2022-09-01T14:20:49;2.53;;;0.70;;
48367;SDS011;34173;47.446;18.912;2022-09-01T14:23:18;2.25;;;0.60;;
48367;SDS011;34173;47.446;18.912;2022-09-01T14:25:47;2.65;;;0.60;;
48367;SDS011;34173;47.446;18.912;2022-09-01T14:28:16;3.50;;;0.62;;
48367;SDS011;34173;47.446;18.912;2022-09-01T14:30:47;3.95;;;0.65;;
48367;SDS011;34173;47.446;18.912;2022-09-01T14:33:16;3.53;;;0.90;;
48367;SDS011;34173;47.446;18.912;2022-09-01T14:35:45;1.92;;;0.57;;
48367;SDS011;34173;47.446;18.912;2022-09-01T14:38:14;2.33;;;0.60;;
48367;SDS011;34173;47.446;18.912;2022-09-01T14:40:42;1.35;;;0.70;;
48367;SDS011;34173;47.446;18.912;2022-09-01T14:43:10;2.67;;;0.60;;
48367;SDS011;34173;47.446;18.912;2022-09-01T14:45:42;5.95;;;0.80;;
48367;SDS011;34173;47.446;18.912;2022-09-01T14:48:14;4.03;;;0.60;;
48367;SDS011;34173;47.446;18.912;2022-09-01T14:50:44;1.62;;;0.47;;
48367;SDS011;34173;47.446;18.912;2022-09-01T14:53:14;2.58;;;0.60;;
48367;SDS011;34173;47.446;18.912;2022-09-01T14:55:42;1.67;;;0.52;;
48367;SDS011;34173;47.446;18.912;2022-09-01T14:58:10;8.57;;;1.12;;
48367;SDS011;34173;47.446;18.912;2022-09-01T15:00:38;1.37;;;0.50;;
48367;SDS011;34173;47.446;18.912;2022-09-01T15:03:07;4.22;;;0.60;;
48367;SDS011;34173;47.446;18.912;2022-09-01T15:05:36;4.10;;;0.88;;
48367;SDS011;34173;47.446;18.912;2022-09-01T15:08:07;3.05;;;0.70;;
48367;SDS011;34173;47.446;18.912;2022-09-01T15:10:40;1.92;;;0.60;;
48367;SDS011;34173;47.446;18.912;2022-09-01T15:13:08;7.40;;;0.90;;
48367;SDS011;34173;47.446;18.912;2022-09-01T15:15:36;6.55;;;0.80;;
48367;SDS011;34173;47.446;18.912;2022-09-01T15:18:04;1.30;;;0.60;;
48367;SDS011;34173;47.446;18.912;2022-09-01T15:20:32;2.30;;;0.60;;
48367;SDS011;34173;47.446;18.912;2022-09-01T15:23:22;1.77;;;0.50;;
48367;SDS011;34173;47.446;18.912;2022-09-01T15:25:51;1.87;;;0.70;;
48367;SDS011;34173;47.446;18.912;2022-09-01T15:28:21;2.37;;;0.60;;
48367;SDS011;34173;47.446;18.912;2022-09-01T15:30:49;2.40;;;0.50;;
48367;SDS011;34173;47.446;18.912;2022-09-01T15:33:20;1.35;;;0.68;;
48367;SDS011;34173;47.446;18.912;2022-09-01T15:35:48;3.33;;;0.80;;
48367;SDS011;34173;47.446;18.912;2022-09-01T15:38:15;1.62;;;0.60;;
48367;SDS011;34173;47.446;18.912;2022-09-01T15:40:44;4.47;;;0.70;;
48367;SDS011;34173;47.446;18.912;2022-09-01T15:43:25;1.45;;;0.68;;
48367;SDS011;34173;47.446;18.912;2022-09-01T15:45:56;3.22;;;0.90;;
48367;SDS011;34173;47.446;18.912;2022-09-01T15:48:26;2.05;;;0.60;;
48367;SDS011;34173;47.446;18.912;2022-09-01T15:51:40;2.42;;;1.12;;
48367;SDS011;34173;47.446;18.912;2022-09-01T15:53:48;3.22;;;0.65;;
48367;SDS011;34173;47.446;18.912;2022-09-01T15:56:16;1.95;;;0.57;;
48367;SDS011;34173;47.446;18.912;2022-09-01T15:58:44;1.45;;;0.70;;
48367;SDS011;34173;47.446;18.912;2022-09-01T16:01:30;1.42;;;0.50;;
48367;SDS011;34173;47.446;18.912;2022-09-01T16:03:59;2.30;;;0.60;;
48367;SDS011;34173;47.446;18.912;2022-09-01T16:06:27;1.60;;;0.70;;
48367;SDS011;34173;47.446;18.912;2022-09-01T16:08:55;2.03;;;0.50;;
48367;SDS011;34173;47.446;18.912;2022-09-01T16:11:23;2.12;;;0.60;;
48367;SDS011;34173;47.446;18.912;2022-09-01T16:13:52;1.73;;;0.70;;
48367;SDS011;34173;47.446;18.912;2022-09-01T16:24:26;1.52;;;0.65;;